Time;durP1;ratioP1;P1;durP2;ratioP2;P2;SDS_P1;SDS_P2;PMS_P1;PMS_P2;Temp;Humidity;BMP_temperature;BMP_pressure;BME280_temperature;BME280_humidity;BME280_pressure;Samples;Min_cycle;Max_cycle;Signal;HPM_P1;HPM_P2
2021/08/19 05:14:32;;;;;;;9.73;5.68;;;;;;;18.30;60.69;99949.91;2698903;27;20159;31
2021/08/19 05:17:18;;;;;;;14.50;6.47;;;;;;;18.50;60.24;99945.81;4279309;33;31575;-96
2021/08/19 05:33:30;;;;;;;11.02;6.57;;;;;;;19.34;58.59;99947.53;4528823;28;35475;-89
2021/08/19 05:36:08;;;;;;;11.75;6.22;;;;;;;19.45;58.55;99942.78;4248632;33;33974;-94
2021/08/19 05:38:55;;;;;;;11.48;6.62;;;;;;;19.66;57.84;99945.59;4242354;33;33663;-95
2021/08/19 05:42:04;;;;;;;11.90;6.50;;;;;;;19.99;56.78;99936.50;4241907;33;33089;-92
2021/08/19 05:44:55;;;;;;;13.00;6.87;;;;;;;19.84;57.10;99951.09;4241985;33;34792;-93
2021/08/19 05:47:24;;;;;;;9.90;7.03;;;;;;;20.11;56.32;99946.59;4250110;33;34511;-91
2021/08/19 05:49:52;;;;;;;11.68;6.90;;;;;;;20.28;56.30;99946.00;4248532;33;34648;-94
2021/08/19 07:16:37;;;;;;;10.82;5.40;;;;;;;23.43;47.14;99956.00;4980607;27;20124;-88
2021/08/19 07:19:08;;;;;;;9.45;5.68;;;;;;;23.51;47.90;99961.75;4306342;33;34547;-93
2021/08/19 07:21:36;;;;;;;10.13;5.28;;;;;;;23.35;46.55;99955.50;4319218;33;33650;-93
2021/08/19 07:24:04;;;;;;;8.75;5.20;;;;;;;23.40;47.50;99952.63;4282960;33;32935;-92
2021/08/19 07:26:32;;;;;;;9.75;5.72;;;;;;;23.27;47.69;99962.09;4307231;33;34758;-93
2021/08/19 07:29:01;;;;;;;7.12;4.75;;;;;;;23.27;48.68;99959.44;4295069;33;34196;-92
2021/08/19 07:31:46;;;;;;;9.23;5.37;;;;;;;23.40;48.66;99961.44;4296677;33;34557;-91
2021/08/19 07:34:14;;;;;;;7.75;5.37;;;;;;;23.72;47.25;99953.66;4294786;33;33840;-92
2021/08/19 07:36:43;;;;;;;7.12;4.93;;;;;;;23.72;47.33;99956.31;4319035;33;34062;-92
2021/08/19 07:39:11;;;;;;;8.38;5.10;;;;;;;24.04;45.94;99952.81;4318776;33;34783;-92
2021/08/19 07:41:39;;;;;;;6.47;4.82;;;;;;;23.87;46.81;99948.41;4307553;33;34051;-93
2021/08/19 07:44:07;;;;;;;8.82;5.75;;;;;;;24.12;46.64;99945.34;4307706;33;34260;-93
2021/08/19 07:46:35;;;;;;;9.10;5.68;;;;;;;24.06;46.98;99946.53;4294926;33;32951;-93
2021/08/19 07:49:03;;;;;;;8.43;4.70;;;;;;;24.18;46.49;99945.00;4307143;33;34699;-93
2021/08/19 07:51:31;;;;;;;9.60;5.10;;;;;;;24.09;46.62;99946.38;4295216;33;33391;-93
2021/08/19 07:54:00;;;;;;;9.30;5.28;;;;;;;24.46;46.17;99947.87;4304815;33;33809;-92
2021/08/19 07:56:33;;;;;;;9.80;5.50;;;;;;;24.58;43.78;99952.53;4317950;33;34496;-92
2021/08/19 07:59:01;;;;;;;8.07;4.37;;;;;;;24.44;46.16;99957.75;4294264;33;34191;-93
2021/08/19 08:01:29;;;;;;;8.60;4.97;;;;;;;24.39;45.84;99954.50;4320288;33;34704;-95
2021/08/19 08:04:03;;;;;;;10.73;4.82;;;;;;;24.43;46.16;99953.41;4305737;33;33239;-93
2021/08/19 08:06:32;;;;;;;7.70;4.62;;;;;;;24.73;44.76;99954.38;4281481;33;34235;-91
2021/08/19 08:09:00;;;;;;;8.43;4.72;;;;;;;24.86;44.94;99951.91;4306149;33;34733;-96
2021/08/19 08:11:44;;;;;;;5.32;4.25;;;;;;;24.78;44.63;99949.69;4280245;33;34437;-89
2021/08/19 08:14:11;;;;;;;6.87;4.62;;;;;;;24.81;44.94;99953.97;4303906;33;33494;-91
2021/08/19 08:16:39;;;;;;;6.20;4.18;;;;;;;24.99;44.62;99954.72;4278545;33;34271;-92
2021/08/19 08:19:10;;;;;;;7.85;4.47;;;;;;;25.14;44.67;99951.22;4290994;33;34701;-94
2021/08/19 08:21:56;;;;;;;6.03;4.72;;;;;;;25.14;43.83;99952.06;4292987;33;34251;-95
2021/08/19 08:24:24;;;;;;;6.47;4.40;;;;;;;25.26;43.04;99946.03;4280012;33;32663;-91
2021/08/19 08:26:51;;;;;;;6.72;4.22;;;;;;;25.26;42.76;99956.69;4292173;33;33995;-92
2021/08/19 08:29:20;;;;;;;6.87;4.18;;;;;;;25.30;43.55;99952.91;4303184;33;34112;-92
2021/08/19 08:31:47;;;;;;;7.07;3.97;;;;;;;25.21;43.91;99961.41;4278460;33;33825;-92
2021/08/19 08:34:15;;;;;;;6.30;4.32;;;;;;;25.34;42.89;99957.09;4302985;33;33569;-92
2021/08/19 08:36:43;;;;;;;7.70;4.03;;;;;;;24.98;44.06;99950.38;4303385;33;33849;-93
2021/08/19 08:39:11;;;;;;;6.70;3.70;;;;;;;25.36;43.29;99954.34;4291710;33;34165;-94
2021/08/19 08:41:40;;;;;;;6.03;4.03;;;;;;;25.65;42.22;99948.19;4291851;33;34351;-93
2021/08/19 08:44:11;;;;;;;9.52;4.53;;;;;;;25.72;41.89;99952.19;4279236;33;32912;-92
2021/08/19 08:46:39;;;;;;;4.60;3.37;;;;;;;25.64;41.68;99949.16;4302913;33;33734;-95
2021/08/19 08:49:15;;;;;;;4.03;3.15;;;;;;;25.49;43.05;99953.56;4279888;33;33946;-95
2021/08/19 08:51:52;;;;;;;6.55;3.60;;;;;;;25.77;42.75;99951.94;4292003;33;34895;-93
2021/08/19 08:54:20;;;;;;;5.95;3.80;;;;;;;26.22;41.52;99951.00;4279698;33;33824;-92
2021/08/19 08:56:48;;;;;;;4.65;3.37;;;;;;;26.20;40.27;99951.94;4290157;33;34105;-91
2021/08/19 08:59:16;;;;;;;9.20;4.30;;;;;;;26.10;41.22;99956.09;4290073;33;34324;-91
2021/08/19 09:01:44;;;;;;;6.78;3.00;;;;;;;26.22;41.38;99959.81;4277993;33;34106;-91
2021/08/19 09:04:13;;;;;;;4.80;2.55;;;;;;;26.03;40.94;99960.06;4302125;33;34226;-89
2021/08/19 09:06:44;;;;;;;5.90;2.50;;;;;;;26.20;39.97;99957.25;4292972;33;34840;-90
2021/08/19 09:09:17;;;;;;;7.57;2.45;;;;;;;26.24;40.22;99957.94;4293314;33;34805;-91
2021/08/19 09:11:47;;;;;;;3.72;2.50;;;;;;;26.53;39.29;99958.78;4292757;33;33469;-93
2021/08/19 09:14:18;;;;;;;4.50;2.08;;;;;;;26.59;39.14;99945.91;4299764;33;34762;-91
2021/08/19 09:16:50;;;;;;;4.57;2.08;;;;;;;26.24;39.23;99949.94;4292797;33;33237;-96
2021/08/19 09:19:35;;;;;;;3.37;2.47;;;;;;;26.61;38.25;99949.34;4277892;33;34051;-94
2021/08/19 09:22:06;;;;;;;5.37;2.22;;;;;;;26.74;38.46;99947.59;4291304;33;34472;-93
2021/08/19 09:24:47;;;;;;;3.42;2.10;;;;;;;26.62;37.73;99948.41;4281305;33;32929;-91
2021/08/19 09:27:16;;;;;;;3.47;2.37;;;;;;;26.69;37.63;99939.06;4282035;33;33125;-94
2021/08/19 09:30:27;;;;;;;3.08;2.28;;;;;;;26.93;36.04;99930.44;4285684;33;33640;-93
2021/08/19 09:33:23;;;;;;;4.20;2.20;;;;;;;26.44;37.87;99940.69;4306757;33;33644;-92
2021/08/19 09:35:54;;;;;;;4.15;2.10;;;;;;;26.67;36.56;99930.25;4302042;33;33259;-94
2021/08/19 09:38:34;;;;;;;6.20;2.58;;;;;;;26.72;36.49;99932.66;4304458;33;33479;-94
2021/08/19 09:41:21;;;;;;;2.83;2.17;;;;;;;26.89;36.72;99919.09;4286813;33;35295;-94
2021/08/19 09:43:56;;;;;;;3.70;2.27;;;;;;;26.29;38.42;99934.53;4306070;33;34450;-92
2021/08/19 09:46:32;;;;;;;5.32;2.50;;;;;;;26.60;35.54;99926.28;4292356;33;34273;-91
2021/08/19 09:49:19;;;;;;;2.80;2.00;;;;;;;26.81;34.65;99914.25;4304268;33;34308;-91
2021/08/19 09:52:11;;;;;;;3.28;2.47;;;;;;;26.98;35.36;99917.66;4305698;33;35499;-89
2021/08/19 09:54:43;;;;;;;2.12;1.85;;;;;;;27.46;35.07;99917.06;4304193;33;34492;-92
2021/08/19 09:57:11;;;;;;;4.30;2.17;;;;;;;27.49;33.80;99920.41;4304323;33;32994;-92
2021/08/19 09:59:40;;;;;;;4.10;2.05;;;;;;;27.26;35.86;99915.75;4281437;33;34186;-93
2021/08/19 10:02:21;;;;;;;;;;;;;;;27.69;34.38;99910.19;4293421;33;33894;-93
2021/08/19 10:04:50;;;;;;;3.37;2.33;;;;;;;27.65;34.70;99909.53;4305065;33;34683;-94
2021/08/19 10:07:48;;;;;;;2.70;2.10;;;;;;;27.70;35.40;99915.41;4285811;33;32936;-96
2021/08/19 10:14:25;;;;;;;3.37;2.12;;;;;;;28.15;34.35;99903.38;4346414;27;35510;-94
2021/08/19 10:16:59;;;;;;;2.42;2.12;;;;;;;28.44;33.37;99902.16;4308088;33;34031;-96
2021/08/19 10:20:42;;;;;;;12.00;3.53;;;;;;;28.42;31.85;99893.41;4242739;33;34218;-96
2021/08/19 10:23:31;;;;;;;3.22;2.10;;;;;;;28.58;32.30;99885.97;4274652;33;34378;-92
2021/08/19 10:26:07;;;;;;;4.37;2.00;;;;;;;28.06;32.13;99882.62;4264023;33;34717;-95
2021/08/19 10:28:51;;;;;;;4.05;1.83;;;;;;;27.95;32.51;99887.84;4264343;33;34789;-96
2021/08/19 10:31:43;;;;;;;3.65;2.00;;;;;;;28.16;31.12;99883.69;4264574;33;32919;-93
2021/08/19 10:34:18;;;;;;;3.05;1.85;;;;;;;27.72;31.74;99884.09;4265334;33;33534;-96
2021/08/19 10:36:55;;;;;;;3.55;1.80;;;;;;;27.47;31.36;99879.59;4265450;33;34624;-92
2021/08/19 10:39:31;;;;;;;2.30;1.77;;;;;;;27.58;31.23;99868.16;4265060;33;35427;-96
2021/08/19 10:42:30;;;;;;;3.72;1.45;;;;;;;27.40;31.77;99869.44;4265927;33;32673;-91
2021/08/19 10:44:57;;;;;;;6.35;1.60;;;;;;;27.88;31.18;99865.19;4263214;33;33367;-94
2021/08/19 10:47:36;;;;;;;3.85;2.03;;;;;;;27.83;30.82;99870.87;4264523;33;34158;-95
2021/08/19 10:50:26;;;;;;;3.78;1.95;;;;;;;27.85;31.11;99871.59;4262909;33;33448;-93
2021/08/19 10:53:21;;;;;;;4.05;1.70;;;;;;;27.35;33.06;99869.72;4267383;33;34308;-96
2021/08/19 10:56:04;;;;;;;4.78;1.37;;;;;;;27.32;30.08;99863.72;4279004;33;33506;-93
2021/08/19 10:58:35;;;;;;;11.20;1.70;;;;;;;27.21;31.03;99859.13;4278496;33;34890;-88
2021/08/19 11:01:15;;;;;;;3.97;1.75;;;;;;;27.46;30.81;99856.50;4316581;28;33580;-94
2021/08/19 11:03:52;;;;;;;10.73;2.40;;;;;;;27.59;31.80;99848.50;4294477;33;33449;-90
2021/08/19 11:06:26;;;;;;;2.05;1.52;;;;;;;27.32;31.29;99853.03;4294325;33;34676;-90
2021/08/19 11:08:58;;;;;;;4.95;1.73;;;;;;;27.48;29.64;99851.91;4308585;33;34630;-95
2021/08/19 11:11:36;;;;;;;2.22;1.80;;;;;;;27.37;31.46;99846.47;4308100;33;34235;-92
2021/08/19 11:14:18;;;;;;;4.72;1.80;;;;;;;27.08;31.36;99852.00;4278116;33;32829;-92
2021/08/19 11:16:57;;;;;;;3.75;1.60;;;;;;;27.16;31.88;99847.03;4266458;33;33894;-96
2021/08/19 11:22:39;;;;;;;1.92;1.62;;;;;;;26.94;30.79;99844.94;4292072;33;34998;-95
2021/08/19 11:25:34;;;;;;;2.80;1.75;;;;;;;26.99;32.71;99850.81;4277643;33;33989;-93
2021/08/19 11:28:20;;;;;;;2.28;1.37;;;;;;;27.27;31.35;99839.13;4317485;33;34054;-96
2021/08/19 11:31:11;;;;;;;1.45;1.17;;;;;;;27.34;30.03;99848.44;4291498;33;33925;-95
2021/08/19 11:33:42;;;;;;;1.67;1.27;;;;;;;27.35;29.35;99837.66;4292612;33;33507;-93
2021/08/19 11:36:16;;;;;;;1.40;1.15;;;;;;;27.43;29.83;99840.69;4303860;33;34290;-92
2021/08/19 11:38:44;;;;;;;1.80;1.30;;;;;;;27.82;29.90;99837.06;4292249;33;33530;-95
2021/08/19 11:41:21;;;;;;;1.42;1.00;;;;;;;27.43;28.00;99845.19;4305605;33;33939;-94
2021/08/19 11:43:50;;;;;;;1.83;1.48;;;;;;;27.58;29.80;99837.91;4291354;33;33176;-91
2021/08/19 11:46:24;;;;;;;2.55;1.15;;;;;;;27.48;29.69;99832.38;4290949;33;33001;-90
2021/08/19 11:48:57;;;;;;;1.87;1.45;;;;;;;27.60;30.15;99833.34;4290902;33;33300;-92
2021/08/19 11:51:34;;;;;;;1.70;1.30;;;;;;;27.89;28.83;99834.81;4292738;33;34018;-95
2021/08/19 11:54:37;;;;;;;1.87;1.50;;;;;;;27.87;29.53;99829.59;4244316;33;34007;-96
2021/08/19 11:57:05;;;;;;;1.67;1.30;;;;;;;28.13;28.67;99828.63;4253338;33;33736;-95
2021/08/19 12:00:14;;;;;;;2.72;1.58;;;;;;;28.19;28.89;99822.81;4259115;33;33447;-96
2021/08/19 12:03:08;;;;;;;1.62;1.23;;;;;;;28.46;28.44;99830.66;4238366;33;34187;-96
2021/08/19 12:06:04;;;;;;;1.77;1.40;;;;;;;28.39;27.45;99818.69;4236968;33;34093;-96
2021/08/19 12:09:06;;;;;;;1.55;1.30;;;;;;;28.35;29.30;99830.59;4237117;33;33812;-91
2021/08/19 12:11:43;;;;;;;1.70;1.20;;;;;;;28.32;30.80;99828.13;4256675;33;34105;-91
2021/08/19 12:14:13;;;;;;;1.70;1.20;;;;;;;28.44;28.49;99824.56;4244657;33;33973;-91
2021/08/19 12:16:48;;;;;;;2.65;1.52;;;;;;;28.34;29.95;99823.53;4245366;33;34166;-91
2021/08/19 12:19:19;;;;;;;2.05;1.42;;;;;;;27.99;29.25;99822.50;4245416;33;33722;-95
2021/08/19 12:22:08;;;;;;;2.10;1.27;;;;;;;28.13;29.29;99825.09;4259926;33;34735;-94
2021/08/19 12:24:38;;;;;;;2.25;1.62;;;;;;;28.00;30.13;99827.78;4273342;33;35590;-95
2021/08/19 12:27:26;;;;;;;1.80;1.40;;;;;;;28.09;29.54;99824.47;4271150;33;33502;-93
2021/08/19 12:29:56;;;;;;;4.93;1.27;;;;;;;28.09;28.53;99834.28;4271560;33;32386;-92
2021/08/19 12:32:35;;;;;;;1.92;1.45;;;;;;;27.96;29.49;99834.28;4270660;33;34234;-94
2021/08/19 12:35:07;;;;;;;2.37;1.50;;;;;;;27.85;29.69;99836.88;4260837;33;34892;-94
2021/08/19 12:37:36;;;;;;;1.85;1.30;;;;;;;27.84;28.76;99829.78;4272269;33;33453;-93
2021/08/19 12:40:08;;;;;;;1.55;1.20;;;;;;;27.86;29.24;99830.53;4260018;33;34018;-92
2021/08/19 12:42:38;;;;;;;1.83;1.40;;;;;;;27.90;29.57;99820.50;4259591;33;34054;-92
2021/08/19 12:45:12;;;;;;;2.12;1.35;;;;;;;27.82;30.21;99825.53;4270592;33;34888;-91
2021/08/19 12:48:11;;;;;;;2.22;1.37;;;;;;;27.98;28.10;99820.81;4271206;33;33669;-92
2021/08/19 12:50:39;;;;;;;2.47;1.30;;;;;;;27.86;29.05;99816.34;4259100;33;33870;-93
2021/08/19 12:53:24;;;;;;;1.87;1.25;;;;;;;27.64;29.33;99814.31;4300583;33;33141;-94
2021/08/19 12:55:56;;;;;;;4.30;1.50;;;;;;;27.85;29.76;99810.13;4278413;33;33714;-93
2021/08/19 12:58:30;;;;;;;;;;;;;;;27.98;29.76;99804.78;4290464;33;34933;-93
2021/08/19 13:00:59;;;;;;;2.15;1.15;;;;;;;28.19;29.09;99805.94;4290007;33;32530;-92
2021/08/19 13:03:28;;;;;;;2.65;1.12;;;;;;;28.23;28.69;99804.75;4301992;33;34311;-90
2021/08/19 13:05:55;;;;;;;3.12;1.42;;;;;;;28.38;29.88;99806.31;4289619;33;34000;-91
2021/08/19 13:08:24;;;;;;;5.15;1.48;;;;;;;28.21;28.78;99798.66;4302742;33;34340;-96
2021/08/19 13:10:53;;;;;;;2.83;1.50;;;;;;;28.07;28.65;99804.16;4291683;33;32966;-94
2021/08/19 13:13:51;;;;;;;2.10;1.60;;;;;;;28.16;28.52;99792.78;4277093;33;33406;-96
2021/08/19 13:16:38;;;;;;;2.33;1.60;;;;;;;28.19;28.22;99798.75;4247900;33;33882;-96
2021/08/19 13:19:32;;;;;;;1.30;1.00;;;;;;;28.13;29.04;99801.03;4275835;33;33774;-96
2021/08/19 13:22:15;;;;;;;;;;;;;;;28.01;29.96;99797.41;4287337;33;32703;-95
2021/08/19 13:25:19;;;;;;;3.22;1.45;;;;;;;27.92;30.55;99797.19;4274151;33;33635;-94
2021/08/19 13:28:21;;;;;;;3.03;1.50;;;;;;;27.79;30.18;99794.50;4287163;33;34082;-94
2021/08/19 13:31:26;;;;;;;2.03;1.50;;;;;;;27.94;30.66;99797.91;4275058;33;34632;-93
2021/08/19 13:33:54;;;;;;;3.17;1.65;;;;;;;27.91;30.00;99798.13;4276186;33;33171;-92
2021/08/19 13:36:22;;;;;;;3.35;1.83;;;;;;;27.98;29.32;99788.75;4287317;33;33957;-93
2021/08/19 13:38:49;;;;;;;5.85;1.70;;;;;;;27.87;29.76;99786.81;4286908;33;34144;-91
2021/08/19 13:41:17;;;;;;;3.67;1.90;;;;;;;27.95;29.66;99795.16;4275758;33;33490;-93
2021/08/19 13:43:45;;;;;;;4.07;2.15;;;;;;;27.83;29.90;99797.84;4264066;33;32717;-90
2021/08/19 13:46:13;;;;;;;2.85;1.45;;;;;;;27.77;30.39;99796.44;4287274;33;33949;-92
2021/08/19 13:48:41;;;;;;;3.30;2.10;;;;;;;27.78;29.66;99794.63;4287974;33;34695;-92
2021/08/19 13:51:09;;;;;;;3.75;2.10;;;;;;;27.92;29.43;99783.81;4275216;33;34246;-92
2021/08/19 13:53:37;;;;;;;2.17;1.60;;;;;;;27.76;30.39;99783.22;4288989;33;33052;-92
2021/08/19 13:56:04;;;;;;;3.45;1.40;;;;;;;27.61;30.60;99784.28;4267166;33;34058;-94
2021/08/19 13:59:24;;;;;;;3.12;1.62;;;;;;;27.68;29.28;99788.22;4238102;33;33906;-95
2021/08/19 14:02:05;;;;;;;2.78;1.73;;;;;;;27.71;30.23;99783.53;4237391;33;34002;-95
2021/08/19 14:04:57;;;;;;;2.47;1.80;;;;;;;27.91;29.37;99782.97;4229769;33;33297;-95
2021/08/19 14:07:39;;;;;;;;;;;;;;;27.56;31.35;99786.41;4262344;33;33364;-93
2021/08/19 14:10:21;;;;;;;2.95;1.65;;;;;;;27.84;30.24;99775.47;4255182;33;34083;-95
2021/08/19 14:13:13;;;;;;;3.37;1.65;;;;;;;28.10;30.23;99774.50;4203056;33;33827;-92
2021/08/19 14:15:41;;;;;;;3.78;1.67;;;;;;;28.14;30.69;99784.88;4256733;33;33178;-95
2021/08/19 14:18:33;;;;;;;3.35;1.92;;;;;;;28.10;29.87;99766.47;4301287;33;33595;-96
2021/08/19 14:21:10;;;;;;;3.72;1.70;;;;;;;28.01;29.63;99761.81;4306894;33;33933;-96
2021/08/19 14:23:40;;;;;;;3.45;2.03;;;;;;;27.95;29.73;99767.56;4304860;33;33601;-93
2021/08/19 14:26:10;;;;;;;2.28;1.60;;;;;;;27.88;29.64;99764.50;4303501;33;33322;-92
2021/08/19 14:28:38;;;;;;;3.78;1.80;;;;;;;27.88;29.39;99768.97;4291285;33;34231;-90
2021/08/19 14:31:06;;;;;;;1.95;1.50;;;;;;;27.89;29.88;99768.00;4314743;33;34618;-89
2021/08/19 14:33:34;;;;;;;5.00;1.75;;;;;;;27.86;29.50;99763.72;4302926;33;34440;-91
2021/08/19 14:36:03;;;;;;;3.30;1.75;;;;;;;27.93;29.21;99758.81;4302797;33;32750;-90
2021/08/19 14:38:31;;;;;;;3.17;1.62;;;;;;;27.84;29.05;99760.31;4290861;33;34791;-90
2021/08/19 14:40:58;;;;;;;2.45;1.70;;;;;;;27.87;28.98;99762.75;4290790;33;33890;-93
2021/08/19 14:43:27;;;;;;;5.95;2.25;;;;;;;27.74;28.74;99759.25;4315106;33;34820;-88
2021/08/19 14:45:54;;;;;;;2.58;1.80;;;;;;;27.83;28.52;99761.28;4303187;33;33446;-91
2021/08/19 14:48:22;;;;;;;2.15;1.50;;;;;;;27.76;29.34;99760.00;4291277;33;34777;-91
2021/08/19 14:50:50;;;;;;;3.85;1.60;;;;;;;27.81;29.11;99770.38;4303057;33;34666;-91
2021/08/19 14:53:18;;;;;;;3.80;2.40;;;;;;;27.76;28.42;99759.16;4291413;33;33827;-90
2021/08/19 14:55:45;;;;;;;5.65;3.62;;;;;;;27.81;29.21;99757.87;4303595;33;32519;-89
2021/08/19 14:58:13;;;;;;;3.83;2.85;;;;;;;27.74;29.42;99756.56;4314555;33;33896;-89
2021/08/19 15:00:41;;;;;;;3.70;2.25;;;;;;;27.86;29.71;99758.38;4290948;33;34901;-89
2021/08/19 15:03:08;;;;;;;4.55;1.77;;;;;;;27.69;31.26;99760.56;4302300;33;34166;-89
2021/08/19 15:05:36;;;;;;;2.45;1.73;;;;;;;27.76;30.13;99761.81;4302659;33;32710;-89
2021/08/19 15:08:03;;;;;;;3.67;2.47;;;;;;;27.53;31.25;99764.28;4290864;33;33469;-91
2021/08/19 15:10:31;;;;;;;5.97;3.42;;;;;;;27.60;29.41;99761.22;4290814;33;34089;-89
2021/08/19 15:12:59;;;;;;;4.85;2.50;;;;;;;27.64;30.25;99752.00;4314802;33;33780;-89
2021/08/19 15:15:26;;;;;;;1.90;1.45;;;;;;;27.77;29.34;99750.16;4302462;33;33768;-89
2021/08/19 15:17:54;;;;;;;3.10;1.40;;;;;;;27.93;27.95;99754.28;4314579;33;33945;-90
2021/08/19 15:20:22;;;;;;;1.85;1.50;;;;;;;27.76;28.78;99756.47;4290465;33;33919;-89
2021/08/19 15:22:50;;;;;;;1.95;1.60;;;;;;;27.90;28.36;99748.31;4290754;33;33967;-90
2021/08/19 15:25:18;;;;;;;4.65;1.60;;;;;;;27.71;28.59;99747.94;4303912;33;33940;-89
2021/08/19 15:27:46;;;;;;;1.73;1.35;;;;;;;27.82;27.69;99745.34;4303784;33;33986;-89
2021/08/19 15:30:14;;;;;;;1.62;1.15;;;;;;;27.67;28.68;99746.44;4290712;33;34555;-88
2021/08/19 15:32:42;;;;;;;2.35;1.40;;;;;;;27.61;28.23;99744.19;4290859;33;34591;-89
2021/08/19 15:35:11;;;;;;;4.12;1.80;;;;;;;27.74;27.78;99745.06;4290662;33;34240;-90
2021/08/19 15:37:39;;;;;;;3.42;2.40;;;;;;;27.47;28.45;99745.19;4290627;33;34169;-89
2021/08/19 15:40:08;;;;;;;3.78;2.10;;;;;;;27.47;29.13;99745.19;4290650;33;34254;-90
2021/08/19 15:42:37;;;;;;;2.60;1.92;;;;;;;27.50;29.42;99744.97;4302669;33;34464;-90
2021/08/19 15:45:05;;;;;;;4.00;2.67;;;;;;;27.45;28.89;99753.31;4302618;33;33794;-90
2021/08/19 15:47:33;;;;;;;2.95;2.65;;;;;;;27.67;28.83;99747.28;4290884;33;34723;-90
2021/08/19 15:50:01;;;;;;;2.25;1.90;;;;;;;27.56;29.10;99754.34;4303565;33;34590;-90
2021/08/19 15:52:29;;;;;;;2.30;1.80;;;;;;;27.62;28.56;99749.47;4290459;33;33452;-88
2021/08/19 15:54:57;;;;;;;4.22;2.35;;;;;;;27.64;28.87;99752.00;4290782;33;33435;-89
2021/08/19 15:57:26;;;;;;;2.45;1.83;;;;;;;27.66;28.71;99752.75;4302449;33;34330;-89
2021/08/19 15:59:54;;;;;;;4.97;2.20;;;;;;;27.56;28.62;99757.03;4290153;33;34600;-90
2021/08/19 16:02:22;;;;;;;3.87;1.95;;;;;;;27.38;29.30;99754.72;4290525;33;34157;-89
2021/08/19 16:04:49;;;;;;;2.65;1.90;;;;;;;27.55;29.18;99748.19;4290448;33;32767;-90
2021/08/19 16:07:17;;;;;;;3.70;1.80;;;;;;;27.54;29.18;99749.13;4303641;33;33938;-88
2021/08/19 16:09:45;;;;;;;3.65;2.15;;;;;;;27.44;29.60;99753.41;4314454;33;34283;-89
2021/08/19 16:12:16;;;;;;;2.40;1.77;;;;;;;27.34;30.09;99749.63;4313778;33;34979;-89
2021/08/19 16:14:44;;;;;;;2.45;1.60;;;;;;;27.47;29.54;99745.19;4289174;33;33631;-90
2021/08/19 16:17:12;;;;;;;2.55;1.65;;;;;;;27.59;28.50;99754.16;4314052;33;34176;-89
2021/08/19 16:19:41;;;;;;;2.05;1.67;;;;;;;27.50;28.84;99745.81;4313878;33;34799;-89
2021/08/19 16:22:08;;;;;;;3.87;1.77;;;;;;;27.49;29.18;99749.47;4313991;33;34173;-89
2021/08/19 16:24:35;;;;;;;3.25;1.65;;;;;;;27.41;29.50;99750.94;4278183;33;33198;-89
2021/08/19 16:27:04;;;;;;;2.08;1.70;;;;;;;27.35;30.37;99751.34;4290193;33;34929;-89
2021/08/19 16:29:33;;;;;;;2.15;1.42;;;;;;;27.36;30.13;99753.91;4290070;33;35415;-90
2021/08/19 16:32:00;;;;;;;2.80;1.52;;;;;;;27.28;30.53;99758.06;4302264;33;34639;-93
2021/08/19 16:34:28;;;;;;;2.62;1.65;;;;;;;27.25;31.10;99752.94;4302766;33;32959;-91
2021/08/19 16:37:09;;;;;;;2.20;1.60;;;;;;;27.20;31.67;99747.91;4300618;33;34188;-89
2021/08/19 16:39:37;;;;;;;2.28;1.70;;;;;;;27.33;31.24;99759.47;4303111;33;34939;-90
2021/08/19 16:42:05;;;;;;;2.55;1.55;;;;;;;27.28;31.10;99758.94;4290125;33;34952;-90
2021/08/19 16:44:32;;;;;;;1.87;1.60;;;;;;;27.01;30.77;99758.16;4303232;33;34275;-89
2021/08/19 16:47:00;;;;;;;5.15;1.80;;;;;;;26.95;30.81;99753.25;4289705;33;34158;-89
2021/08/19 16:49:29;;;;;;;2.15;1.50;;;;;;;26.89;31.02;99761.66;4301597;33;34878;-89
2021/08/19 16:51:57;;;;;;;2.90;1.90;;;;;;;26.96;30.49;99754.94;4301648;33;33373;-91
2021/08/19 16:54:25;;;;;;;2.40;1.62;;;;;;;26.87;30.58;99755.56;4289809;33;32788;-90
2021/08/19 16:56:52;;;;;;;2.58;1.42;;;;;;;26.74;30.87;99765.34;4289988;33;33837;-89
2021/08/19 16:59:30;;;;;;;3.05;1.67;;;;;;;26.75;31.11;99764.37;4312708;33;35645;-90
2021/08/19 17:01:58;;;;;;;3.60;1.80;;;;;;;26.87;30.80;99763.56;4289716;33;33687;-90
2021/08/19 17:04:26;;;;;;;2.80;1.85;;;;;;;26.69;31.46;99762.09;4289819;33;34175;-91
2021/08/19 17:06:54;;;;;;;4.95;2.05;;;;;;;26.72;32.00;99764.59;4289668;33;33069;-90
2021/08/19 17:09:22;;;;;;;3.03;1.90;;;;;;;26.65;33.19;99768.59;4301487;33;34746;-90
2021/08/19 17:11:49;;;;;;;3.70;1.98;;;;;;;26.58;33.82;99757.47;4289740;33;34101;-90
2021/08/19 17:14:16;;;;;;;2.80;1.80;;;;;;;26.59;34.17;99767.19;4289555;33;34304;-90
2021/08/19 17:16:47;;;;;;;3.80;2.30;;;;;;;26.50;35.45;99767.81;4313187;33;33936;-90
2021/08/19 17:19:14;;;;;;;4.35;1.95;;;;;;;26.30;36.51;99776.25;4301332;33;34784;-90
2021/08/19 17:21:42;;;;;;;3.65;1.62;;;;;;;26.34;36.71;99776.91;4289587;33;34910;-90
2021/08/19 17:24:11;;;;;;;5.82;2.47;;;;;;;26.18;37.31;99767.22;4290073;33;33015;-90
2021/08/19 17:26:38;;;;;;;3.15;1.87;;;;;;;26.22;37.34;99777.72;4302661;33;34357;-90
2021/08/19 17:29:06;;;;;;;4.85;2.05;;;;;;;26.10;38.31;99768.66;4291613;33;35500;-91
2021/08/19 17:31:34;;;;;;;3.62;2.05;;;;;;;26.05;38.66;99771.59;4303213;33;34263;-90
2021/08/19 17:34:04;;;;;;;4.15;2.37;;;;;;;25.93;39.07;99771.53;4291593;33;33495;-91
2021/08/19 17:36:32;;;;;;;4.70;2.28;;;;;;;26.00;38.96;99772.84;4291764;33;33723;-91
2021/08/19 17:39:00;;;;;;;3.25;2.20;;;;;;;25.82;39.85;99768.66;4315402;33;34272;-90
2021/08/19 17:41:27;;;;;;;5.62;2.10;;;;;;;25.72;40.43;99776.38;4304879;33;34922;-90
2021/08/19 17:43:55;;;;;;;3.05;1.98;;;;;;;25.56;40.96;99778.28;4291413;33;33472;-90
2021/08/19 17:46:22;;;;;;;5.15;2.37;;;;;;;25.63;41.06;99784.94;4291121;33;33383;-90
2021/08/19 17:48:50;;;;;;;7.25;2.22;;;;;;;25.40;41.65;99782.81;4291268;33;33720;-88
2021/08/19 17:51:17;;;;;;;6.80;2.25;;;;;;;25.29;41.95;99785.28;4315206;33;34952;-88
2021/08/19 17:53:45;;;;;;;4.60;2.00;;;;;;;25.14;42.38;99784.41;4291263;33;33827;-89
2021/08/19 17:56:13;;;;;;;4.43;2.28;;;;;;;25.06;42.70;99788.44;4291185;33;33994;-90
2021/08/19 17:58:40;;;;;;;4.60;2.05;;;;;;;25.08;42.95;99789.25;4291147;33;34228;-88
2021/08/19 18:01:08;;;;;;;4.93;2.65;;;;;;;24.95;43.10;99788.25;4302880;33;34433;-90
2021/08/19 18:03:36;;;;;;;5.62;2.53;;;;;;;24.87;43.44;99788.69;4291174;33;33737;-90
2021/08/19 18:06:04;;;;;;;4.25;2.60;;;;;;;24.76;43.85;99799.97;4302987;33;33298;-88
2021/08/19 18:08:32;;;;;;;10.65;2.65;;;;;;;24.68;44.04;99802.16;4290980;33;34010;-89
2021/08/19 18:11:00;;;;;;;7.45;2.83;;;;;;;24.58;44.45;99793.00;4303352;33;34107;-89
2021/08/19 18:13:27;;;;;;;8.35;2.75;;;;;;;24.42;44.78;99800.12;4303371;33;34337;-89
2021/08/19 18:15:55;;;;;;;8.80;3.50;;;;;;;24.37;44.97;99804.84;4291170;33;33534;-90
2021/08/19 18:18:22;;;;;;;5.53;3.08;;;;;;;24.30;45.32;99803.47;4303097;33;35593;-90
2021/08/19 18:20:50;;;;;;;6.03;2.75;;;;;;;24.18;45.75;99809.47;4291137;33;33759;-90
2021/08/19 18:23:17;;;;;;;6.55;3.10;;;;;;;24.09;45.79;99810.00;4291069;33;34374;-89
2021/08/19 18:25:45;;;;;;;5.57;3.08;;;;;;;24.00;45.92;99815.78;4290875;33;33416;-89
2021/08/19 18:28:13;;;;;;;9.05;3.10;;;;;;;23.96;45.81;99814.25;4303017;33;34901;-89
2021/08/19 18:30:42;;;;;;;10.70;3.17;;;;;;;23.81;45.68;99810.63;4291282;33;34833;-89
2021/08/19 18:33:09;;;;;;;4.43;2.85;;;;;;;23.74;45.83;99813.69;4315009;33;33447;-89
2021/08/19 18:35:37;;;;;;;7.53;2.75;;;;;;;23.52;46.01;99817.47;4304122;33;34205;-89
2021/08/19 18:38:04;;;;;;;8.80;2.62;;;;;;;23.49;45.61;99824.72;4291741;33;34979;-89
2021/08/19 18:40:32;;;;;;;5.70;2.15;;;;;;;23.47;45.21;99821.31;4307755;33;33433;-89
2021/08/19 18:43:00;;;;;;;4.25;2.35;;;;;;;23.45;44.79;99820.53;4318276;33;33984;-89
2021/08/19 18:45:27;;;;;;;5.32;2.37;;;;;;;23.42;44.49;99818.91;4306285;33;35279;-91
2021/08/19 18:47:55;;;;;;;2.62;2.08;;;;;;;23.35;44.47;99822.81;4292507;33;35929;-90
2021/08/19 18:50:23;;;;;;;2.80;2.10;;;;;;;23.27;44.63;99832.09;4303047;33;34742;-90
2021/08/19 18:52:51;;;;;;;4.90;1.98;;;;;;;23.16;44.73;99834.41;4314936;33;34282;-90
2021/08/19 18:55:19;;;;;;;3.37;2.30;;;;;;;23.07;44.68;99832.22;4314685;33;33995;-90
2021/08/19 18:57:47;;;;;;;3.92;2.40;;;;;;;23.04;44.70;99827.94;4302908;33;33972;-90
2021/08/19 19:00:15;;;;;;;4.03;1.75;;;;;;;22.97;44.68;99833.59;4302630;33;34540;-91
2021/08/19 19:02:42;;;;;;;3.12;2.00;;;;;;;23.01;44.58;99838.69;4290912;33;34346;-90